Terminal Aerodrome Forecast
Issued by NWS Dallas/Fort Worth, TX

Home | Current Version | Previous Version | Text Only | Print | Product List | Glossary On
Versions: 1 2 3 4 5 6 7 8 9 10 11 12 13 14 15 16 17 18 19 20 21 22 23 24 25 26 27 28 29 30 31 32 33 34 35 36 37 38 39
000
FTUS44 KFWD 270316 AAC
TAFDFW
TAF AMD
KDFW 270316Z 2703/2806 16010KT P6SM VCTS BKN040CB BKN250
      TEMPO 2703/2706 4SM TSRA BKN025CB
     FM270600 17009KT P6SM VCTS BKN025CB
     FM270900 17009KT 3SM BR OVC007
     FM271600 18010KT P6SM OVC015
     FM272000 18010KT P6SM VCTS BKN035CB
     FM280100 15010KT P6SM SCT040 BKN130=

USA.gov is the U.S. government's official web portal to all federal, state and local government web resources and services.